Time;durP1;ratioP1;P1;durP2;ratioP2;P2;SDS_P1;SDS_P2;PMS_P1;PMS_P2;Temp;Humidity;BMP_temperature;BMP_pressure;BME280_temperature;BME280_humidity;BME280_pressure;Samples;Min_cycle;Max_cycle;Signal;HPM_P1;HPM_P2
2021/08/02 19:17:44;;;;;;;7.40;6.05;;;;;;;;;;4930889;27;4579951;-48
2021/08/02 19:20:11;;;;;;;8.90;7.07;;;;;;;;;;5078525;28;20020;-44
2021/08/02 19:22:38;;;;;;;9.95;6.72;;;;;;;;;;5081901;28;20100;-46
2021/08/02 19:25:06;;;;;;;8.32;7.47;;;;;;;;;;5076824;28;20012;-46
2021/08/02 19:27:32;;;;;;;10.27;6.65;;;;;;;;;;5077359;28;20058;-51
2021/08/02 19:29:58;;;;;;;7.13;6.03;;;;;;;;;;5078704;28;20032;-49
2021/08/02 19:32:25;;;;;;;9.80;6.55;;;;;;;;;;5079128;28;20390;-52
2021/08/02 19:34:52;;;;;;;7.25;6.53;;;;;;;;;;5060040;28;20435;-47
2021/08/02 19:37:19;;;;;;;7.72;6.25;;;;;;;;;;5074288;28;20024;-48
2021/08/02 19:39:45;;;;;;;8.82;6.95;;;;;;;;;;5080178;28;20047;-54
2021/08/02 19:42:13;;;;;;;11.10;7.50;;;;;;;;;;5086461;28;20016;-51
2021/08/02 19:44:43;;;;;;;13.45;7.63;;;;;;;;;;5078837;28;20475;-51
2021/08/02 19:47:16;;;;;;;10.30;7.07;;;;;;;;;;5074545;28;20357;-45
2021/08/02 19:49:46;;;;;;;11.05;7.50;;;;;;;;;;5067688;28;20441;-43
2021/08/02 19:52:13;;;;;;;11.30;7.22;;;;;;;;;;5083030;28;20024;-49
2021/08/02 19:54:39;;;;;;;8.43;7.00;;;;;;;;;;5087271;28;20020;-48
2021/08/02 19:57:06;;;;;;;9.68;7.50;;;;;;;;;;5085244;28;20394;-46
2021/08/02 19:59:33;;;;;;;12.48;7.50;;;;;;;;;;5087325;28;20039;-47
2021/08/02 20:02:01;;;;;;;7.55;6.75;;;;;;;;;;5087269;28;20455;-49
2021/08/02 20:04:27;;;;;;;7.55;6.80;;;;;;;;;;5086635;28;20130;-45
2021/08/02 20:06:53;;;;;;;9.73;7.95;;;;;;;;;;5085606;28;20103;-47
2021/08/02 20:09:19;;;;;;;13.27;8.82;;;;;;;;;;5085152;28;20031;-48
2021/08/02 20:11:46;;;;;;;13.90;8.48;;;;;;;;;;5081294;28;20037;-48
2021/08/02 20:14:13;;;;;;;11.30;9.57;;;;;;;;;;5075796;28;20025;-47
2021/08/02 20:16:39;;;;;;;11.57;9.27;;;;;;;;;;5097119;28;20410;-46
2021/08/02 20:19:05;;;;;;;9.23;8.15;;;;;;;;;;5084867;28;20028;-45
2021/08/02 20:21:31;;;;;;;11.65;7.57;;;;;;;;;;5103469;28;20019;-45
2021/08/02 20:23:58;;;;;;;9.13;8.20;;;;;;;;;;5088628;28;20028;-46
2021/08/02 20:26:25;;;;;;;10.10;8.27;;;;;;;;;;5107902;28;20032;-46
2021/08/02 20:28:53;;;;;;;9.68;7.85;;;;;;;;;;5078110;28;20423;-46
2021/08/02 20:31:19;;;;;;;10.13;8.18;;;;;;;;;;5094605;28;20028;-45
2021/08/02 20:33:45;;;;;;;10.27;8.23;;;;;;;;;;5094372;28;20051;-45
2021/08/02 20:36:12;;;;;;;13.68;9.73;;;;;;;;;;5075991;28;20032;-45
2021/08/02 20:38:57;;;;;;;10.07;7.38;;;;;;;;;;5075855;28;20371;-46
2021/08/02 20:41:23;;;;;;;11.07;7.82;;;;;;;;;;5093676;28;20031;-45
2021/08/02 20:43:49;;;;;;;9.57;7.82;;;;;;;;;;5075799;28;20020;-46
2021/08/02 20:46:16;;;;;;;10.75;8.35;;;;;;;;;;5093921;28;20024;-46
2021/08/02 20:48:43;;;;;;;8.77;6.72;;;;;;;;;;5094324;28;20016;-47
2021/08/02 20:51:09;;;;;;;7.90;6.78;;;;;;;;;;5094046;28;20024;-46
2021/08/02 20:53:36;;;;;;;9.70;8.18;;;;;;;;;;5076135;28;20532;-45
2021/08/02 20:56:02;;;;;;;9.38;7.22;;;;;;;;;;5086124;28;20024;-47
2021/08/02 20:58:28;;;;;;;10.07;8.70;;;;;;;;;;5081987;28;20020;-48
2021/08/02 21:00:54;;;;;;;10.43;8.18;;;;;;;;;;5065788;28;20012;-46
2021/08/02 21:03:25;;;;;;;11.63;8.68;;;;;;;;;;5082700;28;20017;-46
2021/08/02 21:05:52;;;;;;;8.90;8.00;;;;;;;;;;5063673;28;20074;-45
2021/08/02 21:08:18;;;;;;;11.00;8.68;;;;;;;;;;5064150;28;20556;-47
2021/08/02 21:11:03;;;;;;;10.57;8.68;;;;;;;;;;5082003;28;20052;-45
2021/08/02 21:13:33;;;;;;;10.25;8.93;;;;;;;;;;5086016;28;20032;-46
2021/08/02 21:16:04;;;;;;;10.75;9.15;;;;;;;;;;5083513;28;20120;-47
2021/08/02 21:18:30;;;;;;;13.05;9.20;;;;;;;;;;5083211;28;20025;-46
2021/08/02 21:20:57;;;;;;;11.68;9.23;;;;;;;;;;5083147;28;20016;-48
2021/08/02 21:23:23;;;;;;;12.38;9.13;;;;;;;;;;5082688;28;20023;-48
2021/08/02 21:25:50;;;;;;;10.40;8.02;;;;;;;;;;5063235;28;20031;-48
2021/08/02 21:28:16;;;;;;;9.02;8.05;;;;;;;;;;5080688;28;20050;-46
2021/08/02 21:30:42;;;;;;;8.35;7.45;;;;;;;;;;5082137;28;20035;-47
2021/08/02 21:33:08;;;;;;;10.10;7.43;;;;;;;;;;5068360;28;20032;-47
2021/08/02 21:35:35;;;;;;;8.13;6.90;;;;;;;;;;5085634;28;20031;-48
2021/08/02 21:38:01;;;;;;;9.40;7.90;;;;;;;;;;5081716;28;20043;-49
2021/08/02 21:40:27;;;;;;;9.52;7.03;;;;;;;;;;5082585;28;20017;-49
2021/08/02 21:42:53;;;;;;;9.75;7.10;;;;;;;;;;5080952;28;20024;-46
2021/08/02 21:45:19;;;;;;;9.23;6.72;;;;;;;;;;5082371;28;20501;-48
2021/08/02 21:47:45;;;;;;;8.20;6.40;;;;;;;;;;5082232;28;20056;-48
2021/08/02 21:50:11;;;;;;;8.27;6.30;;;;;;;;;;5080502;28;20063;-46
2021/08/02 21:52:37;;;;;;;7.32;6.38;;;;;;;;;;5064523;28;20449;-49
2021/08/02 21:55:05;;;;;;;7.40;5.53;;;;;;;;;;5081998;28;20027;-49
2021/08/02 21:57:31;;;;;;;6.68;5.75;;;;;;;;;;5080446;28;20034;-49
2021/08/02 21:59:57;;;;;;;8.77;6.05;;;;;;;;;;5082352;28;20024;-49
2021/08/02 22:02:23;;;;;;;7.82;6.03;;;;;;;;;;5063301;28;20047;-48
2021/08/02 22:04:49;;;;;;;6.90;5.35;;;;;;;;;;5080377;28;20035;-46
2021/08/02 22:07:15;;;;;;;6.30;5.15;;;;;;;;;;5064230;28;20471;-47
2021/08/02 22:09:41;;;;;;;9.73;6.30;;;;;;;;;;5081118;28;20028;-49
2021/08/02 22:12:07;;;;;;;6.03;5.53;;;;;;;;;;5080790;28;20127;-46
2021/08/02 22:14:33;;;;;;;6.30;5.70;;;;;;;;;;5082253;28;20024;-47
2021/08/02 22:16:59;;;;;;;6.05;5.45;;;;;;;;;;5080303;28;20048;-51
2021/08/02 22:19:25;;;;;;;5.43;4.88;;;;;;;;;;5082914;28;20518;-50
2021/08/02 22:21:51;;;;;;;6.10;5.38;;;;;;;;;;5092260;28;20028;-48
2021/08/02 22:24:17;;;;;;;5.50;5.00;;;;;;;;;;5091663;28;20028;-50
2021/08/02 22:26:43;;;;;;;5.85;5.20;;;;;;;;;;5091252;28;20474;-50
2021/08/02 22:29:09;;;;;;;6.25;5.65;;;;;;;;;;5092203;28;20020;-50
2021/08/02 22:31:35;;;;;;;5.30;4.80;;;;;;;;;;5092037;28;20039;-51
2021/08/02 22:34:01;;;;;;;7.00;4.90;;;;;;;;;;5073753;28;20024;-47
2021/08/02 22:36:28;;;;;;;7.35;5.05;;;;;;;;;;5072613;28;20035;-48
2021/08/02 22:38:54;;;;;;;5.55;4.90;;;;;;;;;;5091024;28;20627;-48
2021/08/02 22:41:20;;;;;;;5.70;5.05;;;;;;;;;;5073332;28;20092;-50
2021/08/02 22:43:46;;;;;;;5.30;4.80;;;;;;;;;;5091323;28;20455;-49
2021/08/02 22:46:12;;;;;;;7.50;5.13;;;;;;;;;;5073241;28;20024;-46
2021/08/02 22:48:38;;;;;;;8.18;5.55;;;;;;;;;;5090940;28;20059;-49
2021/08/02 22:51:04;;;;;;;4.78;4.38;;;;;;;;;;5073433;28;20027;-47
2021/08/02 22:53:30;;;;;;;5.10;4.60;;;;;;;;;;5092020;28;20117;-49
2021/08/02 22:55:56;;;;;;;6.50;5.05;;;;;;;;;;5091916;28;20031;-50
2021/08/02 22:58:23;;;;;;;6.13;4.35;;;;;;;;;;5074158;28;20383;-49
2021/08/02 23:00:50;;;;;;;5.32;4.40;;;;;;;;;;5091839;28;20059;-46
2021/08/02 23:03:17;;;;;;;5.28;4.78;;;;;;;;;;5057389;28;20020;-51
2021/08/02 23:05:43;;;;;;;5.20;4.53;;;;;;;;;;5073979;28;20027;-48
2021/08/02 23:08:10;;;;;;;5.80;4.13;;;;;;;;;;5091801;28;20016;-48
2021/08/02 23:10:46;;;;;;;6.80;4.88;;;;;;;;;;5091813;28;20016;-48
2021/08/02 23:13:13;;;;;;;6.72;5.00;;;;;;;;;;5091711;28;20020;-48
2021/08/02 23:15:39;;;;;;;6.45;4.93;;;;;;;;;;5091507;28;20082;-48
2021/08/02 23:18:05;;;;;;;4.93;4.28;;;;;;;;;;5073997;28;20541;-48
2021/08/02 23:20:31;;;;;;;6.38;4.88;;;;;;;;;;5091766;28;20106;-49
2021/08/02 23:22:57;;;;;;;5.68;4.53;;;;;;;;;;5091715;28;20027;-50
2021/08/02 23:25:23;;;;;;;4.07;3.72;;;;;;;;;;5073835;28;20463;-47
2021/08/02 23:27:53;;;;;;;7.15;3.70;;;;;;;;;;5091713;28;20031;-47
2021/08/02 23:30:19;;;;;;;5.93;4.18;;;;;;;;;;5091625;28;20042;-46
2021/08/02 23:32:46;;;;;;;4.60;3.60;;;;;;;;;;5091683;28;20069;-47
2021/08/02 23:35:13;;;;;;;6.15;3.60;;;;;;;;;;5091515;28;20111;-47
2021/08/02 23:37:39;;;;;;;4.15;3.75;;;;;;;;;;5091578;28;20053;-46
2021/08/02 23:40:08;;;;;;;4.22;3.92;;;;;;;;;;5091537;28;20012;-47
2021/08/02 23:42:35;;;;;;;4.53;3.90;;;;;;;;;;5091550;28;20034;-49
2021/08/02 23:45:01;;;;;;;5.93;3.80;;;;;;;;;;5073609;28;20032;-47
2021/08/02 23:47:27;;;;;;;4.68;4.03;;;;;;;;;;5073534;28;20051;-47
2021/08/02 23:49:53;;;;;;;5.70;3.53;;;;;;;;;;5073625;28;20467;-47
2021/08/02 23:52:19;;;;;;;5.25;4.10;;;;;;;;;;5073607;28;20029;-47
2021/08/02 23:54:45;;;;;;;4.60;3.65;;;;;;;;;;5091417;28;20028;-47
2021/08/02 23:57:13;;;;;;;3.40;3.10;;;;;;;;;;5073519;28;20036;-47
2021/08/02 23:59:39;;;;;;;4.30;3.90;;;;;;;;;;5091435;28;20016;-47
